sensor_id;sensor_type;location;lat;lon;timestamp;temperature;humidity
40638;DHT22;26336;44.696;10.622;2023-01-28T00:03:01;3.70;99.90
40638;DHT22;26336;44.696;10.622;2023-01-28T00:06:11;3.70;99.90
40638;DHT22;26336;44.696;10.622;2023-01-28T00:09:15;3.80;99.90
40638;DHT22;26336;44.696;10.622;2023-01-28T00:12:19;3.80;99.90
40638;DHT22;26336;44.696;10.622;2023-01-28T00:15:23;3.80;99.90
40638;DHT22;26336;44.696;10.622;2023-01-28T00:18:28;3.70;99.90
40638;DHT22;26336;44.696;10.622;2023-01-28T00:21:32;3.80;99.90
40638;DHT22;26336;44.696;10.622;2023-01-28T00:24:37;3.80;99.90
40638;DHT22;26336;44.696;10.622;2023-01-28T00:27:40;3.90;99.90
40638;DHT22;26336;44.696;10.622;2023-01-28T00:30:44;3.90;99.90
40638;DHT22;26336;44.696;10.622;2023-01-28T00:33:49;3.80;99.90
40638;DHT22;26336;44.696;10.622;2023-01-28T00:36:53;3.70;99.90
40638;DHT22;26336;44.696;10.622;2023-01-28T00:39:59;3.70;99.90
40638;DHT22;26336;44.696;10.622;2023-01-28T00:43:03;3.80;99.90
40638;DHT22;26336;44.696;10.622;2023-01-28T00:46:08;3.80;99.90
40638;DHT22;26336;44.696;10.622;2023-01-28T00:49:13;3.90;99.90
40638;DHT22;26336;44.696;10.622;2023-01-28T00:52:18;4.00;99.90
40638;DHT22;26336;44.696;10.622;2023-01-28T00:55:24;4.00;99.90
40638;DHT22;26336;44.696;10.622;2023-01-28T00:58:29;4.00;99.90
40638;DHT22;26336;44.696;10.622;2023-01-28T01:01:33;4.00;99.90
40638;DHT22;26336;44.696;10.622;2023-01-28T01:04:38;4.10;99.90
40638;DHT22;26336;44.696;10.622;2023-01-28T01:07:41;4.00;99.90
40638;DHT22;26336;44.696;10.622;2023-01-28T01:10:45;4.10;99.90
40638;DHT22;26336;44.696;10.622;2023-01-28T01:13:54;4.00;99.90
40638;DHT22;26336;44.696;10.622;2023-01-28T01:17:01;4.00;99.90
40638;DHT22;26336;44.696;10.622;2023-01-28T01:20:10;3.90;99.90
40638;DHT22;26336;44.696;10.622;2023-01-28T01:23:15;3.90;99.90
40638;DHT22;26336;44.696;10.622;2023-01-28T01:26:19;3.80;99.90
40638;DHT22;26336;44.696;10.622;2023-01-28T01:29:23;3.80;99.90
40638;DHT22;26336;44.696;10.622;2023-01-28T01:32:32;3.90;99.90
40638;DHT22;26336;44.696;10.622;2023-01-28T01:35:37;3.90;99.90
40638;DHT22;26336;44.696;10.622;2023-01-28T01:38:41;4.00;99.90
40638;DHT22;26336;44.696;10.622;2023-01-28T01:41:46;3.90;99.90
40638;DHT22;26336;44.696;10.622;2023-01-28T01:51:30;4.00;99.90
40638;DHT22;26336;44.696;10.622;2023-01-28T01:54:36;3.90;99.90
40638;DHT22;26336;44.696;10.622;2023-01-28T01:57:40;3.90;99.90
40638;DHT22;26336;44.696;10.622;2023-01-28T02:00:45;3.80;99.90
40638;DHT22;26336;44.696;10.622;2023-01-28T02:04:02;3.80;99.90
40638;DHT22;26336;44.696;10.622;2023-01-28T02:07:08;3.80;99.90
40638;DHT22;26336;44.696;10.622;2023-01-28T02:10:17;4.00;99.90
40638;DHT22;26336;44.696;10.622;2023-01-28T02:13:26;4.10;99.90
40638;DHT22;26336;44.696;10.622;2023-01-28T02:16:32;4.10;99.90
40638;DHT22;26336;44.696;10.622;2023-01-28T02:19:49;4.10;99.90
40638;DHT22;26336;44.696;10.622;2023-01-28T02:33:41;3.80;99.90
40638;DHT22;26336;44.696;10.622;2023-01-28T02:36:55;3.70;99.90
40638;DHT22;26336;44.696;10.622;2023-01-28T02:40:02;3.70;99.90
40638;DHT22;26336;44.696;10.622;2023-01-28T02:43:07;3.70;99.90
40638;DHT22;26336;44.696;10.622;2023-01-28T02:46:45;3.60;99.90
40638;DHT22;26336;44.696;10.622;2023-01-28T02:50:03;3.60;99.90
40638;DHT22;26336;44.696;10.622;2023-01-28T02:53:44;3.70;99.90
40638;DHT22;26336;44.696;10.622;2023-01-28T02:57:15;3.60;99.90
40638;DHT22;26336;44.696;10.622;2023-01-28T03:03:49;3.70;99.90
40638;DHT22;26336;44.696;10.622;2023-01-28T03:06:59;3.60;99.90
40638;DHT22;26336;44.696;10.622;2023-01-28T03:10:09;3.50;99.90
40638;DHT22;26336;44.696;10.622;2023-01-28T03:13:15;3.50;99.90
40638;DHT22;26336;44.696;10.622;2023-01-28T03:16:37;3.40;99.90
40638;DHT22;26336;44.696;10.622;2023-01-28T03:20:00;3.50;99.90
40638;DHT22;26336;44.696;10.622;2023-01-28T03:23:28;3.50;99.90
40638;DHT22;26336;44.696;10.622;2023-01-28T03:27:09;3.50;99.90
40638;DHT22;26336;44.696;10.622;2023-01-28T03:30:47;3.50;99.90
40638;DHT22;26336;44.696;10.622;2023-01-28T03:34:21;3.50;99.90
40638;DHT22;26336;44.696;10.622;2023-01-28T03:37:44;3.60;99.90
40638;DHT22;26336;44.696;10.622;2023-01-28T03:40:59;3.70;99.90
40638;DHT22;26336;44.696;10.622;2023-01-28T03:44:03;3.80;99.90
40638;DHT22;26336;44.696;10.622;2023-01-28T03:47:28;3.80;99.90
40638;DHT22;26336;44.696;10.622;2023-01-28T03:50:33;3.90;99.90
40638;DHT22;26336;44.696;10.622;2023-01-28T03:53:39;3.90;99.90
40638;DHT22;26336;44.696;10.622;2023-01-28T03:56:43;4.00;99.90
40638;DHT22;26336;44.696;10.622;2023-01-28T03:59:50;4.00;99.90
40638;DHT22;26336;44.696;10.622;2023-01-28T04:02:55;4.00;99.90
40638;DHT22;26336;44.696;10.622;2023-01-28T04:06:04;4.00;99.90
40638;DHT22;26336;44.696;10.622;2023-01-28T04:09:26;4.00;99.90
40638;DHT22;26336;44.696;10.622;2023-01-28T04:12:41;3.90;99.90
40638;DHT22;26336;44.696;10.622;2023-01-28T04:15:45;3.90;99.90
40638;DHT22;26336;44.696;10.622;2023-01-28T04:18:51;3.90;99.90
40638;DHT22;26336;44.696;10.622;2023-01-28T04:21:55;3.90;99.90
40638;DHT22;26336;44.696;10.622;2023-01-28T04:25:00;3.90;99.90
40638;DHT22;26336;44.696;10.622;2023-01-28T04:28:04;3.90;99.90
40638;DHT22;26336;44.696;10.622;2023-01-28T04:31:09;3.90;99.90
40638;DHT22;26336;44.696;10.622;2023-01-28T04:34:30;3.90;99.90
40638;DHT22;26336;44.696;10.622;2023-01-28T04:37:47;3.90;99.90
40638;DHT22;26336;44.696;10.622;2023-01-28T04:41:03;3.90;99.90
40638;DHT22;26336;44.696;10.622;2023-01-28T04:44:09;3.90;99.90
40638;DHT22;26336;44.696;10.622;2023-01-28T04:47:51;3.90;99.90
40638;DHT22;26336;44.696;10.622;2023-01-28T04:51:14;3.90;99.90
40638;DHT22;26336;44.696;10.622;2023-01-28T04:54:38;3.90;99.90
40638;DHT22;26336;44.696;10.622;2023-01-28T04:57:43;3.90;99.90
40638;DHT22;26336;44.696;10.622;2023-01-28T05:00:46;3.90;99.90
40638;DHT22;26336;44.696;10.622;2023-01-28T05:03:55;3.90;99.90
40638;DHT22;26336;44.696;10.622;2023-01-28T05:07:04;3.90;99.90
40638;DHT22;26336;44.696;10.622;2023-01-28T05:10:09;3.90;99.90
40638;DHT22;26336;44.696;10.622;2023-01-28T05:13:14;3.90;99.90
40638;DHT22;26336;44.696;10.622;2023-01-28T05:16:18;3.80;99.90
40638;DHT22;26336;44.696;10.622;2023-01-28T05:19:21;3.80;99.90
40638;DHT22;26336;44.696;10.622;2023-01-28T05:22:25;3.80;99.90
40638;DHT22;26336;44.696;10.622;2023-01-28T05:25:50;3.80;99.90
40638;DHT22;26336;44.696;10.622;2023-01-28T05:28:54;3.80;99.90
40638;DHT22;26336;44.696;10.622;2023-01-28T05:31:58;3.80;99.90
40638;DHT22;26336;44.696;10.622;2023-01-28T05:35:02;3.90;99.90
40638;DHT22;26336;44.696;10.622;2023-01-28T05:38:07;3.90;99.90
40638;DHT22;26336;44.696;10.622;2023-01-28T05:41:10;3.90;99.90
40638;DHT22;26336;44.696;10.622;2023-01-28T05:44:15;3.90;99.90
40638;DHT22;26336;44.696;10.622;2023-01-28T05:47:39;3.90;99.90
40638;DHT22;26336;44.696;10.622;2023-01-28T05:51:12;3.90;99.90
40638;DHT22;26336;44.696;10.622;2023-01-28T05:54:21;3.90;99.90
40638;DHT22;26336;44.696;10.622;2023-01-28T05:57:25;3.90;99.90
40638;DHT22;26336;44.696;10.622;2023-01-28T06:00:29;3.90;99.90
40638;DHT22;26336;44.696;10.622;2023-01-28T06:03:33;3.90;99.90
40638;DHT22;26336;44.696;10.622;2023-01-28T06:06:38;3.90;99.90
40638;DHT22;26336;44.696;10.622;2023-01-28T06:09:43;3.90;99.90
40638;DHT22;26336;44.696;10.622;2023-01-28T06:12:47;3.90;99.90
40638;DHT22;26336;44.696;10.622;2023-01-28T06:16:12;3.80;99.90
40638;DHT22;26336;44.696;10.622;2023-01-28T06:19:23;3.90;99.90
40638;DHT22;26336;44.696;10.622;2023-01-28T06:22:27;3.80;99.90
40638;DHT22;26336;44.696;10.622;2023-01-28T06:25:32;3.80;99.90
40638;DHT22;26336;44.696;10.622;2023-01-28T06:28:40;3.80;99.90
40638;DHT22;26336;44.696;10.622;2023-01-28T06:31:44;3.80;99.90
40638;DHT22;26336;44.696;10.622;2023-01-28T06:34:48;3.80;99.90
40638;DHT22;26336;44.696;10.622;2023-01-28T06:37:53;3.80;99.90
40638;DHT22;26336;44.696;10.622;2023-01-28T06:40:57;3.80;99.90
40638;DHT22;26336;44.696;10.622;2023-01-28T06:44:01;3.80;99.90
40638;DHT22;26336;44.696;10.622;2023-01-28T06:47:05;3.80;99.90
40638;DHT22;26336;44.696;10.622;2023-01-28T06:50:09;3.80;99.90
40638;DHT22;26336;44.696;10.622;2023-01-28T06:53:14;3.80;99.90
40638;DHT22;26336;44.696;10.622;2023-01-28T06:56:17;3.80;99.90
40638;DHT22;26336;44.696;10.622;2023-01-28T06:59:22;3.70;99.90
40638;DHT22;26336;44.696;10.622;2023-01-28T07:02:26;3.70;99.90
40638;DHT22;26336;44.696;10.622;2023-01-28T07:05:30;3.70;99.90
40638;DHT22;26336;44.696;10.622;2023-01-28T07:08:34;3.70;99.90
40638;DHT22;26336;44.696;10.622;2023-01-28T07:11:38;3.70;99.90
40638;DHT22;26336;44.696;10.622;2023-01-28T07:14:42;3.70;99.90
40638;DHT22;26336;44.696;10.622;2023-01-28T07:17:46;3.70;99.90
40638;DHT22;26336;44.696;10.622;2023-01-28T07:20:50;3.70;99.90
40638;DHT22;26336;44.696;10.622;2023-01-28T07:23:54;3.60;99.90
40638;DHT22;26336;44.696;10.622;2023-01-28T07:26:58;3.60;99.90
40638;DHT22;26336;44.696;10.622;2023-01-28T07:30:03;3.60;99.90
40638;DHT22;26336;44.696;10.622;2023-01-28T07:33:07;3.60;99.90
40638;DHT22;26336;44.696;10.622;2023-01-28T07:36:11;3.60;99.90
40638;DHT22;26336;44.696;10.622;2023-01-28T07:39:15;3.60;99.90
40638;DHT22;26336;44.696;10.622;2023-01-28T07:42:19;3.60;99.90
40638;DHT22;26336;44.696;10.622;2023-01-28T07:45:24;3.60;99.90
40638;DHT22;26336;44.696;10.622;2023-01-28T07:48:28;3.50;99.90
40638;DHT22;26336;44.696;10.622;2023-01-28T07:51:32;3.50;99.90
40638;DHT22;26336;44.696;10.622;2023-01-28T07:54:36;3.50;99.90
40638;DHT22;26336;44.696;10.622;2023-01-28T07:57:58;3.50;99.90
40638;DHT22;26336;44.696;10.622;2023-01-28T08:01:03;3.50;99.90
40638;DHT22;26336;44.696;10.622;2023-01-28T08:04:06;3.50;99.90
40638;DHT22;26336;44.696;10.622;2023-01-28T08:07:10;3.50;99.90
40638;DHT22;26336;44.696;10.622;2023-01-28T08:10:16;3.50;99.90
40638;DHT22;26336;44.696;10.622;2023-01-28T08:13:20;3.50;99.90
40638;DHT22;26336;44.696;10.622;2023-01-28T08:16:24;3.50;99.90
40638;DHT22;26336;44.696;10.622;2023-01-28T08:19:28;3.50;99.90
40638;DHT22;26336;44.696;10.622;2023-01-28T08:22:32;3.50;99.90
40638;DHT22;26336;44.696;10.622;2023-01-28T08:25:36;3.50;99.90
40638;DHT22;26336;44.696;10.622;2023-01-28T08:28:40;3.50;99.90
40638;DHT22;26336;44.696;10.622;2023-01-28T08:31:44;3.60;99.90
40638;DHT22;26336;44.696;10.622;2023-01-28T08:34:48;3.60;99.90
40638;DHT22;26336;44.696;10.622;2023-01-28T08:37:52;3.70;99.90
40638;DHT22;26336;44.696;10.622;2023-01-28T08:40:56;3.70;99.90
40638;DHT22;26336;44.696;10.622;2023-01-28T08:44:01;3.70;99.90
40638;DHT22;26336;44.696;10.622;2023-01-28T08:47:05;3.80;99.90
40638;DHT22;26336;44.696;10.622;2023-01-28T08:50:09;3.80;99.90
40638;DHT22;26336;44.696;10.622;2023-01-28T08:53:15;3.90;99.90
40638;DHT22;26336;44.696;10.622;2023-01-28T08:56:19;3.90;99.90
40638;DHT22;26336;44.696;10.622;2023-01-28T08:59:23;4.00;99.90
40638;DHT22;26336;44.696;10.622;2023-01-28T09:02:27;4.10;99.90
40638;DHT22;26336;44.696;10.622;2023-01-28T09:05:31;4.10;99.90
40638;DHT22;26336;44.696;10.622;2023-01-28T09:08:36;4.20;99.90
40638;DHT22;26336;44.696;10.622;2023-01-28T09:11:40;4.20;99.90
40638;DHT22;26336;44.696;10.622;2023-01-28T09:14:44;4.20;99.90
40638;DHT22;26336;44.696;10.622;2023-01-28T09:17:48;4.30;99.90
40638;DHT22;26336;44.696;10.622;2023-01-28T09:20:52;4.40;99.90
40638;DHT22;26336;44.696;10.622;2023-01-28T09:23:56;4.40;99.90
40638;DHT22;26336;44.696;10.622;2023-01-28T09:27:01;4.50;99.90
40638;DHT22;26336;44.696;10.622;2023-01-28T09:30:05;4.50;99.90
40638;DHT22;26336;44.696;10.622;2023-01-28T09:33:09;4.60;99.90
40638;DHT22;26336;44.696;10.622;2023-01-28T09:36:13;4.70;99.90
40638;DHT22;26336;44.696;10.622;2023-01-28T09:39:17;4.70;99.90
40638;DHT22;26336;44.696;10.622;2023-01-28T09:45:46;4.80;99.90
40638;DHT22;26336;44.696;10.622;2023-01-28T09:48:51;4.80;99.90
40638;DHT22;26336;44.696;10.622;2023-01-28T09:51:55;4.90;99.90
40638;DHT22;26336;44.696;10.622;2023-01-28T09:55:16;5.00;99.90
40638;DHT22;26336;44.696;10.622;2023-01-28T09:58:22;5.10;99.90
40638;DHT22;26336;44.696;10.622;2023-01-28T10:01:43;5.20;99.90
40638;DHT22;26336;44.696;10.622;2023-01-28T10:18:43;5.60;99.90
40638;DHT22;26336;44.696;10.622;2023-01-28T10:25:02;5.70;99.90
40638;DHT22;26336;44.696;10.622;2023-01-28T10:28:23;5.70;99.90
40638;DHT22;26336;44.696;10.622;2023-01-28T10:31:31;5.80;99.90
40638;DHT22;26336;44.696;10.622;2023-01-28T10:34:40;5.90;99.90
40638;DHT22;26336;44.696;10.622;2023-01-28T10:37:44;5.90;99.90
40638;DHT22;26336;44.696;10.622;2023-01-28T10:40:49;6.00;99.90
40638;DHT22;26336;44.696;10.622;2023-01-28T10:43:53;6.00;99.90
40638;DHT22;26336;44.696;10.622;2023-01-28T10:47:00;6.10;99.90
40638;DHT22;26336;44.696;10.622;2023-01-28T10:50:05;6.10;99.90
40638;DHT22;26336;44.696;10.622;2023-01-28T10:53:10;6.20;99.90
40638;DHT22;26336;44.696;10.622;2023-01-28T10:56:24;6.20;99.90
40638;DHT22;26336;44.696;10.622;2023-01-28T10:59:33;6.20;99.90
40638;DHT22;26336;44.696;10.622;2023-01-28T11:02:40;6.30;99.90
40638;DHT22;26336;44.696;10.622;2023-01-28T11:05:54;6.30;99.90
40638;DHT22;26336;44.696;10.622;2023-01-28T11:08:58;6.40;99.90
40638;DHT22;26336;44.696;10.622;2023-01-28T11:12:19;6.40;99.90
40638;DHT22;26336;44.696;10.622;2023-01-28T11:15:23;6.50;99.90
40638;DHT22;26336;44.696;10.622;2023-01-28T11:18:34;6.50;99.90
40638;DHT22;26336;44.696;10.622;2023-01-28T11:21:38;6.60;99.90
40638;DHT22;26336;44.696;10.622;2023-01-28T11:24:42;6.60;99.90
40638;DHT22;26336;44.696;10.622;2023-01-28T11:27:51;6.70;99.90
40638;DHT22;26336;44.696;10.622;2023-01-28T11:30:57;6.70;99.90
40638;DHT22;26336;44.696;10.622;2023-01-28T11:34:04;6.70;99.90
40638;DHT22;26336;44.696;10.622;2023-01-28T11:37:13;6.70;99.90
40638;DHT22;26336;44.696;10.622;2023-01-28T11:40:21;6.80;99.90
40638;DHT22;26336;44.696;10.622;2023-01-28T11:43:27;6.70;99.90
40638;DHT22;26336;44.696;10.622;2023-01-28T12:00:17;6.70;99.90
40638;DHT22;26336;44.696;10.622;2023-01-28T12:03:35;6.70;99.90
40638;DHT22;26336;44.696;10.622;2023-01-28T12:13:25;6.70;99.90
40638;DHT22;26336;44.696;10.622;2023-01-28T12:22:55;6.60;99.90
40638;DHT22;26336;44.696;10.622;2023-01-28T12:29:46;6.60;99.90
40638;DHT22;26336;44.696;10.622;2023-01-28T12:36:19;6.70;99.90
40638;DHT22;26336;44.696;10.622;2023-01-28T12:42:55;6.70;99.90
40638;DHT22;26336;44.696;10.622;2023-01-28T12:53:00;6.80;99.90
40638;DHT22;26336;44.696;10.622;2023-01-28T12:56:30;6.80;99.90
40638;DHT22;26336;44.696;10.622;2023-01-28T12:59:49;6.80;99.90
40638;DHT22;26336;44.696;10.622;2023-01-28T13:06:37;6.80;99.90
40638;DHT22;26336;44.696;10.622;2023-01-28T13:09:51;6.80;99.90
40638;DHT22;26336;44.696;10.622;2023-01-28T13:12:56;6.90;99.90
40638;DHT22;26336;44.696;10.622;2023-01-28T13:16:03;6.90;99.90
40638;DHT22;26336;44.696;10.622;2023-01-28T13:19:21;6.90;99.90
40638;DHT22;26336;44.696;10.622;2023-01-28T13:22:34;6.90;99.60
40638;DHT22;26336;44.696;10.622;2023-01-28T13:25:48;6.90;99.00
40638;DHT22;26336;44.696;10.622;2023-01-28T13:29:05;6.90;98.80
40638;DHT22;26336;44.696;10.622;2023-01-28T13:32:31;6.90;98.90
40638;DHT22;26336;44.696;10.622;2023-01-28T13:35:38;7.00;98.00
40638;DHT22;26336;44.696;10.622;2023-01-28T13:38:43;7.10;97.90
40638;DHT22;26336;44.696;10.622;2023-01-28T13:42:06;7.20;97.60
40638;DHT22;26336;44.696;10.622;2023-01-28T13:52:11;7.20;98.00
40638;DHT22;26336;44.696;10.622;2023-01-28T13:55:22;7.20;97.50
40638;DHT22;26336;44.696;10.622;2023-01-28T14:05:30;7.10;97.90
40638;DHT22;26336;44.696;10.622;2023-01-28T14:08:51;7.00;97.70
40638;DHT22;26336;44.696;10.622;2023-01-28T14:18:30;6.90;98.40
40638;DHT22;26336;44.696;10.622;2023-01-28T14:21:36;6.90;98.10
40638;DHT22;26336;44.696;10.622;2023-01-28T14:24:40;6.80;98.60
40638;DHT22;26336;44.696;10.622;2023-01-28T14:27:46;6.70;98.60
40638;DHT22;26336;44.696;10.622;2023-01-28T14:31:06;6.70;98.50
40638;DHT22;26336;44.696;10.622;2023-01-28T14:34:22;6.60;98.70
40638;DHT22;26336;44.696;10.622;2023-01-28T14:37:29;6.70;98.50
40638;DHT22;26336;44.696;10.622;2023-01-28T14:40:37;6.80;98.20
40638;DHT22;26336;44.696;10.622;2023-01-28T14:43:41;6.90;98.00
40638;DHT22;26336;44.696;10.622;2023-01-28T14:47:00;7.00;97.80
40638;DHT22;26336;44.696;10.622;2023-01-28T14:50:24;7.00;97.90
40638;DHT22;26336;44.696;10.622;2023-01-28T15:00:33;6.80;98.60
40638;DHT22;26336;44.696;10.622;2023-01-28T15:03:44;6.80;99.10
40638;DHT22;26336;44.696;10.622;2023-01-28T15:06:48;6.90;98.60
40638;DHT22;26336;44.696;10.622;2023-01-28T15:10:10;6.90;98.50
40638;DHT22;26336;44.696;10.622;2023-01-28T15:13:28;6.90;98.90
40638;DHT22;26336;44.696;10.622;2023-01-28T15:16:33;6.90;99.00
40638;DHT22;26336;44.696;10.622;2023-01-28T15:19:39;6.80;99.50
40638;DHT22;26336;44.696;10.622;2023-01-28T15:22:43;6.60;99.00
40638;DHT22;26336;44.696;10.622;2023-01-28T15:25:48;6.60;99.40
40638;DHT22;26336;44.696;10.622;2023-01-28T15:28:52;6.60;99.50
40638;DHT22;26336;44.696;10.622;2023-01-28T15:31:57;6.60;99.20
40638;DHT22;26336;44.696;10.622;2023-01-28T15:35:05;6.70;99.20
40638;DHT22;26336;44.696;10.622;2023-01-28T15:38:16;6.70;99.20
40638;DHT22;26336;44.696;10.622;2023-01-28T15:41:31;6.80;99.00
40638;DHT22;26336;44.696;10.622;2023-01-28T15:44:41;6.80;99.40
40638;DHT22;26336;44.696;10.622;2023-01-28T15:47:48;6.80;99.30
40638;DHT22;26336;44.696;10.622;2023-01-28T15:51:22;6.80;98.70
40638;DHT22;26336;44.696;10.622;2023-01-28T15:54:26;6.80;98.90
40638;DHT22;26336;44.696;10.622;2023-01-28T15:57:33;6.70;98.50
40638;DHT22;26336;44.696;10.622;2023-01-28T16:00:37;6.70;98.80
40638;DHT22;26336;44.696;10.622;2023-01-28T16:03:42;6.70;99.30
40638;DHT22;26336;44.696;10.622;2023-01-28T16:06:47;6.70;99.40
40638;DHT22;26336;44.696;10.622;2023-01-28T16:09:56;6.70;99.20
40638;DHT22;26336;44.696;10.622;2023-01-28T16:13:11;6.80;99.50
40638;DHT22;26336;44.696;10.622;2023-01-28T16:16:34;6.80;99.50
40638;DHT22;26336;44.696;10.622;2023-01-28T16:19:42;6.70;99.60
40638;DHT22;26336;44.696;10.622;2023-01-28T16:22:48;6.80;99.90
40638;DHT22;26336;44.696;10.622;2023-01-28T16:26:04;6.80;99.90
40638;DHT22;26336;44.696;10.622;2023-01-28T16:29:17;6.80;99.90
40638;DHT22;26336;44.696;10.622;2023-01-28T16:32:35;6.80;99.90
40638;DHT22;26336;44.696;10.622;2023-01-28T16:35:39;6.90;99.90
40638;DHT22;26336;44.696;10.622;2023-01-28T16:38:44;6.90;99.90
40638;DHT22;26336;44.696;10.622;2023-01-28T16:41:48;6.90;99.90
40638;DHT22;26336;44.696;10.622;2023-01-28T16:44:52;6.80;99.90
40638;DHT22;26336;44.696;10.622;2023-01-28T16:47:56;6.80;99.80
40638;DHT22;26336;44.696;10.622;2023-01-28T16:51:01;6.80;99.90
40638;DHT22;26336;44.696;10.622;2023-01-28T16:54:06;6.70;99.90
40638;DHT22;26336;44.696;10.622;2023-01-28T16:57:13;6.70;99.90
40638;DHT22;26336;44.696;10.622;2023-01-28T17:00:24;6.60;99.90
40638;DHT22;26336;44.696;10.622;2023-01-28T17:03:30;6.60;99.90
40638;DHT22;26336;44.696;10.622;2023-01-28T17:06:35;6.60;99.90
40638;DHT22;26336;44.696;10.622;2023-01-28T17:09:45;6.60;99.90
40638;DHT22;26336;44.696;10.622;2023-01-28T17:12:49;6.60;99.90
40638;DHT22;26336;44.696;10.622;2023-01-28T17:15:53;6.50;99.90
40638;DHT22;26336;44.696;10.622;2023-01-28T17:18:57;6.40;99.90
40638;DHT22;26336;44.696;10.622;2023-01-28T17:22:01;6.30;99.90
40638;DHT22;26336;44.696;10.622;2023-01-28T17:25:05;6.30;99.90
40638;DHT22;26336;44.696;10.622;2023-01-28T17:28:09;6.20;99.90
40638;DHT22;26336;44.696;10.622;2023-01-28T17:31:13;6.10;99.90
40638;DHT22;26336;44.696;10.622;2023-01-28T17:34:17;5.70;99.90
40638;DHT22;26336;44.696;10.622;2023-01-28T17:37:21;5.70;99.90
40638;DHT22;26336;44.696;10.622;2023-01-28T17:40:25;5.80;99.90
40638;DHT22;26336;44.696;10.622;2023-01-28T17:43:29;5.80;99.90
40638;DHT22;26336;44.696;10.622;2023-01-28T17:46:33;5.90;99.90
40638;DHT22;26336;44.696;10.622;2023-01-28T17:49:37;5.80;99.90
40638;DHT22;26336;44.696;10.622;2023-01-28T17:52:41;5.80;99.90
40638;DHT22;26336;44.696;10.622;2023-01-28T17:55:45;5.60;99.90
40638;DHT22;26336;44.696;10.622;2023-01-28T17:59:00;5.60;99.90
40638;DHT22;26336;44.696;10.622;2023-01-28T18:02:10;5.50;99.90
40638;DHT22;26336;44.696;10.622;2023-01-28T18:05:14;5.60;99.90
40638;DHT22;26336;44.696;10.622;2023-01-28T18:08:18;5.60;99.90
40638;DHT22;26336;44.696;10.622;2023-01-28T18:11:22;5.70;99.90
40638;DHT22;26336;44.696;10.622;2023-01-28T18:14:26;5.70;99.90
40638;DHT22;26336;44.696;10.622;2023-01-28T18:17:30;5.70;99.90
40638;DHT22;26336;44.696;10.622;2023-01-28T18:20:34;5.70;99.90
40638;DHT22;26336;44.696;10.622;2023-01-28T18:23:42;5.70;99.90
40638;DHT22;26336;44.696;10.622;2023-01-28T18:26:46;5.70;99.90
40638;DHT22;26336;44.696;10.622;2023-01-28T18:29:50;5.70;99.90
40638;DHT22;26336;44.696;10.622;2023-01-28T18:32:56;5.60;99.90
40638;DHT22;26336;44.696;10.622;2023-01-28T18:36:05;5.50;99.90
40638;DHT22;26336;44.696;10.622;2023-01-28T18:39:11;5.40;99.90
40638;DHT22;26336;44.696;10.622;2023-01-28T18:42:15;5.40;99.90
40638;DHT22;26336;44.696;10.622;2023-01-28T18:45:19;5.40;99.90
40638;DHT22;26336;44.696;10.622;2023-01-28T18:48:23;5.30;99.90
40638;DHT22;26336;44.696;10.622;2023-01-28T18:51:27;5.30;99.90
40638;DHT22;26336;44.696;10.622;2023-01-28T18:54:31;5.20;99.90
40638;DHT22;26336;44.696;10.622;2023-01-28T18:57:35;5.20;99.90
40638;DHT22;26336;44.696;10.622;2023-01-28T19:00:45;5.30;99.90
40638;DHT22;26336;44.696;10.622;2023-01-28T19:04:01;5.30;99.90
40638;DHT22;26336;44.696;10.622;2023-01-28T19:07:11;5.30;99.90
40638;DHT22;26336;44.696;10.622;2023-01-28T19:10:16;5.20;99.90
40638;DHT22;26336;44.696;10.622;2023-01-28T19:13:22;5.20;99.90
40638;DHT22;26336;44.696;10.622;2023-01-28T19:16:26;5.20;99.90
40638;DHT22;26336;44.696;10.622;2023-01-28T19:19:30;5.20;99.90
40638;DHT22;26336;44.696;10.622;2023-01-28T19:22:34;5.20;99.90
40638;DHT22;26336;44.696;10.622;2023-01-28T19:25:38;5.10;99.90
40638;DHT22;26336;44.696;10.622;2023-01-28T19:28:45;4.90;99.90
40638;DHT22;26336;44.696;10.622;2023-01-28T19:31:49;4.90;99.90
40638;DHT22;26336;44.696;10.622;2023-01-28T19:34:53;5.00;99.90
40638;DHT22;26336;44.696;10.622;2023-01-28T19:37:57;4.90;99.90
40638;DHT22;26336;44.696;10.622;2023-01-28T19:41:05;4.80;99.90
40638;DHT22;26336;44.696;10.622;2023-01-28T19:44:09;4.80;99.90
40638;DHT22;26336;44.696;10.622;2023-01-28T19:47:13;4.70;99.90
40638;DHT22;26336;44.696;10.622;2023-01-28T19:50:18;4.70;99.90
40638;DHT22;26336;44.696;10.622;2023-01-28T19:53:22;4.60;99.90
40638;DHT22;26336;44.696;10.622;2023-01-28T19:56:26;4.70;99.90
40638;DHT22;26336;44.696;10.622;2023-01-28T19:59:32;4.80;99.90
40638;DHT22;26336;44.696;10.622;2023-01-28T20:02:36;4.70;99.90
40638;DHT22;26336;44.696;10.622;2023-01-28T20:05:40;4.80;99.90
40638;DHT22;26336;44.696;10.622;2023-01-28T20:08:44;4.80;99.90
40638;DHT22;26336;44.696;10.622;2023-01-28T20:11:48;4.80;99.90
40638;DHT22;26336;44.696;10.622;2023-01-28T20:14:52;4.70;99.90
40638;DHT22;26336;44.696;10.622;2023-01-28T20:17:58;4.60;99.90
40638;DHT22;26336;44.696;10.622;2023-01-28T20:21:02;4.60;99.90
40638;DHT22;26336;44.696;10.622;2023-01-28T20:24:10;4.60;99.90
40638;DHT22;26336;44.696;10.622;2023-01-28T20:27:14;4.60;99.90
40638;DHT22;26336;44.696;10.622;2023-01-28T20:30:19;4.60;99.90
40638;DHT22;26336;44.696;10.622;2023-01-28T20:33:24;4.50;99.90
40638;DHT22;26336;44.696;10.622;2023-01-28T20:36:28;4.40;99.90
40638;DHT22;26336;44.696;10.622;2023-01-28T20:39:32;4.50;99.90
40638;DHT22;26336;44.696;10.622;2023-01-28T20:42:36;4.50;99.90
40638;DHT22;26336;44.696;10.622;2023-01-28T20:45:40;4.40;99.90
40638;DHT22;26336;44.696;10.622;2023-01-28T20:48:45;4.40;99.90
40638;DHT22;26336;44.696;10.622;2023-01-28T20:51:49;4.40;99.90
40638;DHT22;26336;44.696;10.622;2023-01-28T20:54:56;4.40;99.90
40638;DHT22;26336;44.696;10.622;2023-01-28T20:58:03;4.30;99.90
40638;DHT22;26336;44.696;10.622;2023-01-28T21:01:18;4.30;99.90
40638;DHT22;26336;44.696;10.622;2023-01-28T21:04:23;4.30;99.90
40638;DHT22;26336;44.696;10.622;2023-01-28T21:07:27;4.30;99.90
40638;DHT22;26336;44.696;10.622;2023-01-28T21:10:31;4.30;99.90
40638;DHT22;26336;44.696;10.622;2023-01-28T21:13:35;4.20;99.90
40638;DHT22;26336;44.696;10.622;2023-01-28T21:16:40;4.20;99.90
40638;DHT22;26336;44.696;10.622;2023-01-28T21:19:45;4.20;99.90
40638;DHT22;26336;44.696;10.622;2023-01-28T21:22:50;4.20;99.90
40638;DHT22;26336;44.696;10.622;2023-01-28T21:25:53;4.10;99.90
40638;DHT22;26336;44.696;10.622;2023-01-28T21:28:57;4.00;99.90
40638;DHT22;26336;44.696;10.622;2023-01-28T21:32:01;3.90;99.90
40638;DHT22;26336;44.696;10.622;2023-01-28T21:35:06;4.00;99.90
40638;DHT22;26336;44.696;10.622;2023-01-28T21:38:10;3.80;99.90
40638;DHT22;26336;44.696;10.622;2023-01-28T21:41:14;3.80;99.90
40638;DHT22;26336;44.696;10.622;2023-01-28T21:44:18;3.80;99.90